sensor_id;sensor_type;location;lat;lon;timestamp;pressure;altitude;pressure_sealevel;temperature;humidity
48796;BME280;34607;48.520;-1.330;2023-01-16T08:29:54;97534.75;;;5.62;94.15
48796;BME280;34607;48.520;-1.330;2023-01-16T08:32:22;97561.13;;;5.75;94.19
48796;BME280;34607;48.520;-1.330;2023-01-16T08:34:49;97564.44;;;5.88;94.52
48796;BME280;34607;48.520;-1.330;2023-01-16T08:37:16;97567.88;;;5.89;95.51
48796;BME280;34607;48.520;-1.330;2023-01-16T08:39:43;97572.97;;;5.92;96.33
48796;BME280;34607;48.520;-1.330;2023-01-16T08:42:10;97568.66;;;5.95;96.35
48796;BME280;34607;48.520;-1.330;2023-01-16T08:44:56;97583.19;;;5.98;96.83
48796;BME280;34607;48.520;-1.330;2023-01-16T08:47:40;97574.66;;;5.94;97.26
48796;BME280;34607;48.520;-1.330;2023-01-16T08:50:24;97566.13;;;5.92;96.77
48796;BME280;34607;48.520;-1.330;2023-01-16T08:53:09;97580.69;;;5.92;96.80
48796;BME280;34607;48.520;-1.330;2023-01-16T08:55:36;97591.72;;;6.03;96.70
48796;BME280;34607;48.520;-1.330;2023-01-16T08:58:04;97608.81;;;6.07;96.63
48796;BME280;34607;48.520;-1.330;2023-01-16T09:00:33;97597.78;;;5.97;96.61
48796;BME280;34607;48.520;-1.330;2023-01-16T09:03:01;97612.31;;;6.00;96.95
48796;BME280;34607;48.520;-1.330;2023-01-16T09:05:28;97598.66;;;5.92;96.88
48796;BME280;34607;48.520;-1.330;2023-01-16T09:07:55;97611.44;;;5.99;96.15
48796;BME280;34607;48.520;-1.330;2023-01-16T09:10:22;97624.25;;;6.04;94.50
48796;BME280;34607;48.520;-1.330;2023-01-16T09:12:50;97624.22;;;6.07;94.01
48796;BME280;34607;48.520;-1.330;2023-01-16T09:15:36;97616.53;;;6.04;92.91
48796;BME280;34607;48.520;-1.330;2023-01-16T09:18:03;97618.97;;;6.16;93.62
48796;BME280;34607;48.520;-1.330;2023-01-16T09:20:30;97613.84;;;6.18;93.30
48796;BME280;34607;48.520;-1.330;2023-01-16T09:22:57;97632.63;;;6.23;92.78
48796;BME280;34607;48.520;-1.330;2023-01-16T09:25:25;97622.19;;;6.38;92.65
48796;BME280;34607;48.520;-1.330;2023-01-16T09:27:52;97633.25;;;6.45;90.09
48796;BME280;34607;48.520;-1.330;2023-01-16T09:30:19;97628.22;;;6.37;89.70
48796;BME280;34607;48.520;-1.330;2023-01-16T09:32:48;97629.91;;;6.38;89.08
48796;BME280;34607;48.520;-1.330;2023-01-16T09:35:15;97626.44;;;6.43;89.35
48796;BME280;34607;48.520;-1.330;2023-01-16T09:37:43;97634.09;;;6.44;89.71
48796;BME280;34607;48.520;-1.330;2023-01-16T09:40:13;97651.19;;;6.51;90.10
48796;BME280;34607;48.520;-1.330;2023-01-16T09:42:51;97647.66;;;6.62;90.61
48796;BME280;34607;48.520;-1.330;2023-01-16T09:45:38;97658.75;;;6.65;91.00
48796;BME280;34607;48.520;-1.330;2023-01-16T09:48:14;97659.47;;;6.75;90.75
48796;BME280;34607;48.520;-1.330;2023-01-16T09:50:46;97665.28;;;6.91;90.14
48796;BME280;34607;48.520;-1.330;2023-01-16T09:53:19;97673.88;;;6.90;88.12
48796;BME280;34607;48.520;-1.330;2023-01-16T09:56:07;97682.31;;;7.03;86.41
48796;BME280;34607;48.520;-1.330;2023-01-16T09:58:57;97685.66;;;7.08;84.94
48796;BME280;34607;48.520;-1.330;2023-01-16T10:01:32;97689.06;;;7.11;84.35
48796;BME280;34607;48.520;-1.330;2023-01-16T10:04:14;97687.25;;;7.18;83.94
48796;BME280;34607;48.520;-1.330;2023-01-16T10:06:50;97694.84;;;7.27;82.06
48796;BME280;34607;48.520;-1.330;2023-01-16T10:09:24;97717.88;;;7.37;81.50
48796;BME280;34607;48.520;-1.330;2023-01-16T10:11:57;97722.81;;;7.52;81.47
48796;BME280;34607;48.520;-1.330;2023-01-16T10:14:52;97729.94;;;7.33;80.88
48796;BME280;34607;48.520;-1.330;2023-01-16T10:17:31;97688.78;;;7.31;81.77
48796;BME280;34607;48.520;-1.330;2023-01-16T10:20:23;97734.75;;;7.59;80.77
48796;BME280;34607;48.520;-1.330;2023-01-16T10:23:02;97731.84;;;7.81;80.75
48796;BME280;34607;48.520;-1.330;2023-01-16T10:25:39;97750.66;;;7.86;80.75
48796;BME280;34607;48.520;-1.330;2023-01-16T10:28:23;97753.03;;;8.00;80.91
48796;BME280;34607;48.520;-1.330;2023-01-16T10:30:54;97756.88;;;7.73;80.35
48796;BME280;34607;48.520;-1.330;2023-01-16T10:33:27;97772.66;;;7.49;80.10
48796;BME280;34607;48.520;-1.330;2023-01-16T10:36:00;97784.72;;;7.46;79.59
48796;BME280;34607;48.520;-1.330;2023-01-16T10:38:33;97770.75;;;7.62;79.13
48796;BME280;34607;48.520;-1.330;2023-01-16T10:41:13;97791.81;;;7.25;79.19
48796;BME280;34607;48.520;-1.330;2023-01-16T10:43:55;97789.44;;;7.07;80.37
48796;BME280;34607;48.520;-1.330;2023-01-16T10:46:41;97793.00;;;6.97;80.52
48796;BME280;34607;48.520;-1.330;2023-01-16T10:49:25;97805.84;;;6.97;80.82
48796;BME280;34607;48.520;-1.330;2023-01-16T10:51:55;97799.00;;;6.96;80.75
48796;BME280;34607;48.520;-1.330;2023-01-16T10:54:24;97812.75;;;6.94;80.84
48796;BME280;34607;48.520;-1.330;2023-01-16T10:56:51;97806.75;;;6.94;80.72
48796;BME280;34607;48.520;-1.330;2023-01-16T10:59:19;97805.84;;;6.97;81.22
48796;BME280;34607;48.520;-1.330;2023-01-16T11:01:48;97799.88;;;6.94;81.24
48796;BME280;34607;48.520;-1.330;2023-01-16T11:04:18;97804.72;;;7.22;80.31
48796;BME280;34607;48.520;-1.330;2023-01-16T11:06:46;97803.06;;;7.17;80.73
48796;BME280;34607;48.520;-1.330;2023-01-16T11:09:18;97821.91;;;7.20;79.08
48796;BME280;34607;48.520;-1.330;2023-01-16T11:11:49;97818.16;;;7.49;78.50
48796;BME280;34607;48.520;-1.330;2023-01-16T11:14:35;97819.13;;;7.40;78.01
48796;BME280;34607;48.520;-1.330;2023-01-16T11:17:25;97825.94;;;7.41;78.56
48796;BME280;34607;48.520;-1.330;2023-01-16T11:20:13;97828.47;;;7.46;79.14
48796;BME280;34607;48.520;-1.330;2023-01-16T11:22:41;97832.53;;;7.64;79.65
48796;BME280;34607;48.520;-1.330;2023-01-16T11:25:16;97836.88;;;8.24;79.70
48796;BME280;34607;48.520;-1.330;2023-01-16T11:27:46;97827.75;;;8.60;78.96
48796;BME280;34607;48.520;-1.330;2023-01-16T11:30:18;97806.53;;;8.41;79.25
48796;BME280;34607;48.520;-1.330;2023-01-16T11:32:46;97814.84;;;8.03;78.13
48796;BME280;34607;48.520;-1.330;2023-01-16T11:35:16;97837.09;;;8.09;78.92
48796;BME280;34607;48.520;-1.330;2023-01-16T11:37:45;97836.25;;;8.06;78.17
48796;BME280;34607;48.520;-1.330;2023-01-16T11:40:20;97833.63;;;8.11;78.38
48796;BME280;34607;48.520;-1.330;2023-01-16T11:42:53;97831.16;;;8.03;79.15
48796;BME280;34607;48.520;-1.330;2023-01-16T11:45:43;97829.91;;;7.70;80.03
48796;BME280;34607;48.520;-1.330;2023-01-16T11:48:36;97830.47;;;7.92;79.96
48796;BME280;34607;48.520;-1.330;2023-01-16T11:51:04;97827.72;;;8.03;80.29
48796;BME280;34607;48.520;-1.330;2023-01-16T11:53:34;97795.00;;;8.10;80.14
48796;BME280;34607;48.520;-1.330;2023-01-16T11:59:16;97817.78;;;8.89;78.69
48796;BME280;34607;48.520;-1.330;2023-01-16T12:01:55;97815.75;;;9.06;76.51
48796;BME280;34607;48.520;-1.330;2023-01-16T12:04:49;97807.38;;;8.95;75.28
48796;BME280;34607;48.520;-1.330;2023-01-16T12:07:39;97814.50;;;8.80;75.57
48796;BME280;34607;48.520;-1.330;2023-01-16T12:10:23;97815.59;;;8.67;77.14
48796;BME280;34607;48.520;-1.330;2023-01-16T12:12:59;97817.19;;;8.76;77.33
48796;BME280;34607;48.520;-1.330;2023-01-16T12:15:56;97812.31;;;9.07;76.65
48796;BME280;34607;48.520;-1.330;2023-01-16T12:18:34;97806.06;;;9.19;75.83
48796;BME280;34607;48.520;-1.330;2023-01-16T12:21:25;97795.03;;;9.54;74.91
48796;BME280;34607;48.520;-1.330;2023-01-16T12:24:09;97779.44;;;9.57;74.07
48796;BME280;34607;48.520;-1.330;2023-01-16T12:26:49;97795.28;;;9.83;74.28
48796;BME280;34607;48.520;-1.330;2023-01-16T12:29:31;97789.63;;;9.65;73.56
48796;BME280;34607;48.520;-1.330;2023-01-16T12:32:26;97792.38;;;9.57;73.41
48796;BME280;34607;48.520;-1.330;2023-01-16T12:35:19;97788.97;;;9.55;75.19
48796;BME280;34607;48.520;-1.330;2023-01-16T12:38:12;97783.47;;;9.71;75.29
48796;BME280;34607;48.520;-1.330;2023-01-16T12:41:15;97787.88;;;9.66;74.67
48796;BME280;34607;48.520;-1.330;2023-01-16T12:44:14;97796.38;;;9.72;75.89
48796;BME280;34607;48.520;-1.330;2023-01-16T12:46:55;97787.38;;;9.90;75.79
48796;BME280;34607;48.520;-1.330;2023-01-16T12:49:41;97795.06;;;9.53;76.05
48796;BME280;34607;48.520;-1.330;2023-01-16T12:52:22;97790.78;;;9.50;76.75
48796;BME280;34607;48.520;-1.330;2023-01-16T12:55:07;97787.91;;;9.24;75.03
48796;BME280;34607;48.520;-1.330;2023-01-16T12:57:49;97794.66;;;8.84;75.47
48796;BME280;34607;48.520;-1.330;2023-01-16T13:00:23;97802.28;;;8.37;77.25
48796;BME280;34607;48.520;-1.330;2023-01-16T13:02:56;97792.91;;;8.33;77.78
48796;BME280;34607;48.520;-1.330;2023-01-16T13:05:27;97776.28;;;7.97;78.76
48796;BME280;34607;48.520;-1.330;2023-01-16T13:08:00;97844.41;;;7.77;81.38
48796;BME280;34607;48.520;-1.330;2023-01-16T13:10:30;97816.19;;;6.92;86.72
48796;BME280;34607;48.520;-1.330;2023-01-16T13:13:19;97803.53;;;6.72;86.61
48796;BME280;34607;48.520;-1.330;2023-01-16T13:15:53;97804.66;;;7.28;86.48
48796;BME280;34607;48.520;-1.330;2023-01-16T13:18:26;97798.84;;;7.81;85.53
48796;BME280;34607;48.520;-1.330;2023-01-16T13:20:55;97801.78;;;8.14;84.75
48796;BME280;34607;48.520;-1.330;2023-01-16T13:23:26;97801.47;;;8.35;83.51
48796;BME280;34607;48.520;-1.330;2023-01-16T13:25:58;97796.25;;;8.40;83.40
48796;BME280;34607;48.520;-1.330;2023-01-16T13:28:36;97785.97;;;8.38;82.66
48796;BME280;34607;48.520;-1.330;2023-01-16T13:31:17;97793.19;;;8.15;83.09
48796;BME280;34607;48.520;-1.330;2023-01-16T13:33:52;97789.59;;;8.27;83.00
48796;BME280;34607;48.520;-1.330;2023-01-16T13:36:44;97783.19;;;8.51;82.55
48796;BME280;34607;48.520;-1.330;2023-01-16T13:39:49;97776.66;;;8.81;82.03
48796;BME280;34607;48.520;-1.330;2023-01-16T13:42:23;97770.63;;;8.80;82.17
48796;BME280;34607;48.520;-1.330;2023-01-16T13:44:55;97790.16;;;8.95;82.15
48796;BME280;34607;48.520;-1.330;2023-01-16T13:47:41;97774.00;;;8.84;81.95
48796;BME280;34607;48.520;-1.330;2023-01-16T13:50:19;97783.97;;;8.56;82.49
48796;BME280;34607;48.520;-1.330;2023-01-16T13:52:48;97803.22;;;8.35;83.59
48796;BME280;34607;48.520;-1.330;2023-01-16T13:55:26;97790.00;;;7.99;84.61
48796;BME280;34607;48.520;-1.330;2023-01-16T13:57:55;97802.28;;;7.81;85.58
48796;BME280;34607;48.520;-1.330;2023-01-16T14:00:24;97803.34;;;7.66;86.21
48796;BME280;34607;48.520;-1.330;2023-01-16T14:03:09;97799.16;;;7.58;86.64
48796;BME280;34607;48.520;-1.330;2023-01-16T14:05:48;97809.44;;;7.59;87.05
48796;BME280;34607;48.520;-1.330;2023-01-16T14:08:25;97805.16;;;7.57;86.71
48796;BME280;34607;48.520;-1.330;2023-01-16T14:11:34;97806.28;;;7.36;87.10
48796;BME280;34607;48.520;-1.330;2023-01-16T14:14:24;97801.09;;;7.40;87.79
48796;BME280;34607;48.520;-1.330;2023-01-16T14:17:07;97798.25;;;7.59;87.89
48796;BME280;34607;48.520;-1.330;2023-01-16T14:19:36;97800.78;;;7.63;87.41
48796;BME280;34607;48.520;-1.330;2023-01-16T14:22:17;97809.50;;;7.55;87.43
48796;BME280;34607;48.520;-1.330;2023-01-16T14:25:03;97808.06;;;7.32;88.39
48796;BME280;34607;48.520;-1.330;2023-01-16T14:27:37;97826.56;;;6.83;90.50
48796;BME280;34607;48.520;-1.330;2023-01-16T14:30:06;97821.63;;;6.60;92.49
48796;BME280;34607;48.520;-1.330;2023-01-16T14:32:45;97808.84;;;6.53;93.31
48796;BME280;34607;48.520;-1.330;2023-01-16T14:35:15;97803.53;;;6.72;93.53
48796;BME280;34607;48.520;-1.330;2023-01-16T14:37:54;97785.25;;;6.98;92.27
48796;BME280;34607;48.520;-1.330;2023-01-16T14:40:24;97788.47;;;7.19;91.19
48796;BME280;34607;48.520;-1.330;2023-01-16T14:43:14;97785.84;;;7.23;90.93
48796;BME280;34607;48.520;-1.330;2023-01-16T14:46:24;97777.22;;;7.27;89.95
48796;BME280;34607;48.520;-1.330;2023-01-16T14:49:39;97779.56;;;7.44;89.39
48796;BME280;34607;48.520;-1.330;2023-01-16T14:52:44;97777.84;;;7.45;88.88
48796;BME280;34607;48.520;-1.330;2023-01-16T14:55:33;97775.38;;;7.39;88.72
48796;BME280;34607;48.520;-1.330;2023-01-16T14:58:01;97779.09;;;7.13;88.39
48796;BME280;34607;48.520;-1.330;2023-01-16T15:00:30;97779.94;;;7.13;89.29
48796;BME280;34607;48.520;-1.330;2023-01-16T15:03:01;97779.03;;;7.16;88.95
48796;BME280;34607;48.520;-1.330;2023-01-16T15:05:33;97774.84;;;7.09;88.79
48796;BME280;34607;48.520;-1.330;2023-01-16T15:08:17;97779.13;;;7.10;88.71
48796;BME280;34607;48.520;-1.330;2023-01-16T15:10:47;97776.63;;;7.02;88.39
48796;BME280;34607;48.520;-1.330;2023-01-16T15:13:21;97789.56;;;6.98;88.79
48796;BME280;34607;48.520;-1.330;2023-01-16T15:15:51;97785.91;;;7.16;88.68
48796;BME280;34607;48.520;-1.330;2023-01-16T15:18:19;97785.72;;;7.32;88.48
48796;BME280;34607;48.520;-1.330;2023-01-16T15:21:11;97800.31;;;7.34;88.23
48796;BME280;34607;48.520;-1.330;2023-01-16T15:23:57;97793.63;;;7.19;90.50
48796;BME280;34607;48.520;-1.330;2023-01-16T15:26:45;97782.38;;;7.24;91.70
48796;BME280;34607;48.520;-1.330;2023-01-16T15:29:32;97778.66;;;7.48;91.04
48796;BME280;34607;48.520;-1.330;2023-01-16T15:32:10;97773.19;;;7.73;90.74
48796;BME280;34607;48.520;-1.330;2023-01-16T15:34:43;97781.63;;;7.83;89.84
48796;BME280;34607;48.520;-1.330;2023-01-16T15:37:21;97776.53;;;7.80;88.93
48796;BME280;34607;48.520;-1.330;2023-01-16T15:39:50;97785.09;;;7.82;88.71
48796;BME280;34607;48.520;-1.330;2023-01-16T15:42:19;97784.25;;;7.80;88.21
48796;BME280;34607;48.520;-1.330;2023-01-16T15:45:15;97734.97;;;7.44;87.85
48796;BME280;34607;48.520;-1.330;2023-01-16T15:48:10;97781.00;;;7.67;87.72
48796;BME280;34607;48.520;-1.330;2023-01-16T15:50:49;97791.41;;;7.61;87.54
48796;BME280;34607;48.520;-1.330;2023-01-16T15:53:19;97768.47;;;7.41;87.89
48796;BME280;34607;48.520;-1.330;2023-01-16T15:55:51;97791.53;;;7.48;87.77
48796;BME280;34607;48.520;-1.330;2023-01-16T15:58:21;97771.97;;;7.35;87.84
48796;BME280;34607;48.520;-1.330;2023-01-16T16:00:54;97789.84;;;7.47;87.52
48796;BME280;34607;48.520;-1.330;2023-01-16T16:03:23;97788.94;;;7.50;87.50
48796;BME280;34607;48.520;-1.330;2023-01-16T16:05:55;97782.00;;;7.55;87.41
48796;BME280;34607;48.520;-1.330;2023-01-16T16:08:26;97776.03;;;7.52;87.35
48796;BME280;34607;48.520;-1.330;2023-01-16T16:10:58;97772.69;;;7.46;87.35
48796;BME280;34607;48.520;-1.330;2023-01-16T16:13:45;97797.44;;;7.55;87.39
48796;BME280;34607;48.520;-1.330;2023-01-16T16:16:18;97806.91;;;7.56;87.92
48796;BME280;34607;48.520;-1.330;2023-01-16T16:19:30;97800.22;;;7.41;88.62
48796;BME280;34607;48.520;-1.330;2023-01-16T16:22:00;97802.06;;;7.30;89.93
48796;BME280;34607;48.520;-1.330;2023-01-16T16:24:45;97798.72;;;7.23;90.70
48796;BME280;34607;48.520;-1.330;2023-01-16T16:27:15;97790.22;;;7.15;91.03
48796;BME280;34607;48.520;-1.330;2023-01-16T16:29:49;97809.09;;;7.14;91.40
48796;BME280;34607;48.520;-1.330;2023-01-16T16:32:17;97799.06;;;6.92;92.09
48796;BME280;34607;48.520;-1.330;2023-01-16T16:34:51;97794.78;;;6.88;92.26
48796;BME280;34607;48.520;-1.330;2023-01-16T16:37:20;97779.47;;;6.78;92.51
48796;BME280;34607;48.520;-1.330;2023-01-16T16:39:53;97805.91;;;6.92;92.73
48796;BME280;34607;48.520;-1.330;2023-01-16T16:42:49;97801.69;;;6.83;92.81
48796;BME280;34607;48.520;-1.330;2023-01-16T16:45:34;97803.63;;;6.61;93.36
48796;BME280;34607;48.520;-1.330;2023-01-16T16:48:21;97804.53;;;6.57;94.39
48796;BME280;34607;48.520;-1.330;2023-01-16T16:51:19;97765.38;;;6.26;94.45
48796;BME280;34607;48.520;-1.330;2023-01-16T16:53:47;97795.22;;;6.39;95.46
48796;BME280;34607;48.520;-1.330;2023-01-16T16:56:21;97778.25;;;6.23;96.60
48796;BME280;34607;48.520;-1.330;2023-01-16T16:58:52;97810.63;;;6.42;96.52
48796;BME280;34607;48.520;-1.330;2023-01-16T17:01:21;97797.84;;;6.36;96.50
48796;BME280;34607;48.520;-1.330;2023-01-16T17:03:51;97794.47;;;6.29;96.64
48796;BME280;34607;48.520;-1.330;2023-01-16T17:06:21;97794.41;;;6.37;96.48
48796;BME280;34607;48.520;-1.330;2023-01-16T17:08:49;97794.34;;;6.45;96.18
48796;BME280;34607;48.520;-1.330;2023-01-16T17:11:16;97762.81;;;6.27;96.11
48796;BME280;34607;48.520;-1.330;2023-01-16T17:13:43;97795.19;;;6.47;95.88
48796;BME280;34607;48.520;-1.330;2023-01-16T17:16:16;97796.00;;;6.52;96.20
48796;BME280;34607;48.520;-1.330;2023-01-16T17:18:44;97799.41;;;6.51;96.30
48796;BME280;34607;48.520;-1.330;2023-01-16T17:21:13;97781.50;;;6.43;96.36
48796;BME280;34607;48.520;-1.330;2023-01-16T17:23:41;97793.56;;;6.35;96.99
48796;BME280;34607;48.520;-1.330;2023-01-16T17:26:08;97795.31;;;6.33;97.27
48796;BME280;34607;48.520;-1.330;2023-01-16T17:28:37;97797.00;;;6.34;97.53
48796;BME280;34607;48.520;-1.330;2023-01-16T17:31:05;97780.69;;;6.38;97.72
48796;BME280;34607;48.520;-1.330;2023-01-16T17:33:34;97759.34;;;6.27;97.59
48796;BME280;34607;48.520;-1.330;2023-01-16T17:36:01;97726.91;;;6.16;97.59
48796;BME280;34607;48.520;-1.330;2023-01-16T17:38:38;97738.78;;;6.30;97.72
48796;BME280;34607;48.520;-1.330;2023-01-16T17:41:14;97757.47;;;6.46;96.64
48796;BME280;34607;48.520;-1.330;2023-01-16T17:43:41;97736.22;;;6.27;96.41
48796;BME280;34607;48.520;-1.330;2023-01-16T17:46:26;97743.13;;;6.20;97.01
48796;BME280;34607;48.520;-1.330;2023-01-16T17:48:54;97742.38;;;6.10;97.26
48796;BME280;34607;48.520;-1.330;2023-01-16T17:51:21;97737.28;;;6.04;97.25
48796;BME280;34607;48.520;-1.330;2023-01-16T17:53:50;97751.03;;;5.97;97.48
48796;BME280;34607;48.520;-1.330;2023-01-16T17:56:18;97735.63;;;6.00;97.53
48796;BME280;34607;48.520;-1.330;2023-01-16T17:58:47;97726.16;;;6.04;97.41
48796;BME280;34607;48.520;-1.330;2023-01-16T18:01:25;97718.47;;;6.02;96.88
48796;BME280;34607;48.520;-1.330;2023-01-16T18:03:54;97737.16;;;6.16;96.89
48796;BME280;34607;48.520;-1.330;2023-01-16T18:06:25;97732.13;;;6.07;96.42
48796;BME280;34607;48.520;-1.330;2023-01-16T18:08:54;97732.13;;;6.06;96.35
48796;BME280;34607;48.520;-1.330;2023-01-16T18:11:22;97738.19;;;5.92;96.97
48796;BME280;34607;48.520;-1.330;2023-01-16T18:14:09;97727.09;;;5.89;97.52
48796;BME280;34607;48.520;-1.330;2023-01-16T18:16:54;97724.56;;;5.82;97.73
48796;BME280;34607;48.520;-1.330;2023-01-16T18:19:40;97719.47;;;5.79;97.83
48796;BME280;34607;48.520;-1.330;2023-01-16T18:22:07;97723.78;;;5.71;98.21
48796;BME280;34607;48.520;-1.330;2023-01-16T18:24:35;97720.38;;;5.69;98.78
48796;BME280;34607;48.520;-1.330;2023-01-16T18:27:05;97720.31;;;5.75;99.12
48796;BME280;34607;48.520;-1.330;2023-01-16T18:29:32;97718.56;;;5.84;98.95
48796;BME280;34607;48.520;-1.330;2023-01-16T18:32:00;97724.53;;;5.89;98.72
48796;BME280;34607;48.520;-1.330;2023-01-16T18:34:45;97719.47;;;5.78;99.19
48796;BME280;34607;48.520;-1.330;2023-01-16T18:37:13;97719.41;;;5.86;98.85
48796;BME280;34607;48.520;-1.330;2023-01-16T18:39:40;97718.47;;;5.93;98.78
48796;BME280;34607;48.520;-1.330;2023-01-16T18:42:25;97717.78;;;5.72;98.44
48796;BME280;34607;48.520;-1.330;2023-01-16T18:45:11;97707.47;;;5.77;99.38
48796;BME280;34607;48.520;-1.330;2023-01-16T18:48:09;97710.84;;;5.85;99.46
48796;BME280;34607;48.520;-1.330;2023-01-16T18:51:10;97709.94;;;5.94;99.17
48796;BME280;34607;48.520;-1.330;2023-01-16T18:53:55;97677.44;;;5.91;99.33
48796;BME280;34607;48.520;-1.330;2023-01-16T18:56:42;97675.66;;;5.99;99.02
48796;BME280;34607;48.520;-1.330;2023-01-16T18:59:28;97691.03;;;6.04;99.12
48796;BME280;34607;48.520;-1.330;2023-01-16T19:02:38;97687.66;;;5.99;99.24
48796;BME280;34607;48.520;-1.330;2023-01-16T19:05:06;97679.09;;;6.00;99.51
48796;BME280;34607;48.520;-1.330;2023-01-16T19:07:36;97678.19;;;6.04;99.39
48796;BME280;34607;48.520;-1.330;2023-01-16T19:10:12;97677.34;;;6.05;99.31
48796;BME280;34607;48.520;-1.330;2023-01-16T19:12:41;97661.13;;;6.02;99.54
48796;BME280;34607;48.520;-1.330;2023-01-16T19:15:09;97658.50;;;6.03;99.39
48796;BME280;34607;48.520;-1.330;2023-01-16T19:17:38;97661.94;;;6.04;99.95
48796;BME280;34607;48.520;-1.330;2023-01-16T19:20:06;97655.09;;;6.01;99.87
48796;BME280;34607;48.520;-1.330;2023-01-16T19:22:35;97649.97;;;5.98;99.80
48796;BME280;34607;48.520;-1.330;2023-01-16T19:25:03;97648.31;;;5.88;99.69
48796;BME280;34607;48.520;-1.330;2023-01-16T19:27:30;97648.44;;;5.77;99.74
48796;BME280;34607;48.520;-1.330;2023-01-16T19:29:59;97652.72;;;5.76;99.96
48796;BME280;34607;48.520;-1.330;2023-01-16T19:32:26;97643.28;;;5.78;99.95
48796;BME280;34607;48.520;-1.330;2023-01-16T19:34:53;97639.88;;;5.79;99.53
48796;BME280;34607;48.520;-1.330;2023-01-16T19:37:21;97633.09;;;5.68;99.38
48796;BME280;34607;48.520;-1.330;2023-01-16T19:39:49;97634.78;;;5.70;99.61
48796;BME280;34607;48.520;-1.330;2023-01-16T19:42:16;97633.13;;;5.66;99.01
48796;BME280;34607;48.520;-1.330;2023-01-16T19:45:01;97630.78;;;5.35;98.97
48796;BME280;34607;48.520;-1.330;2023-01-16T19:47:45;97623.09;;;5.32;99.50
48796;BME280;34607;48.520;-1.330;2023-01-16T19:50:12;97622.19;;;5.39;100.00
48796;BME280;34607;48.520;-1.330;2023-01-16T19:52:39;97624.75;;;5.36;99.99
48796;BME280;34607;48.520;-1.330;2023-01-16T19:55:08;97621.34;;;5.36;99.68
48796;BME280;34607;48.520;-1.330;2023-01-16T19:57:36;97617.13;;;5.33;99.83
48796;BME280;34607;48.520;-1.330;2023-01-16T20:00:04;97618.88;;;5.25;99.91
48796;BME280;34607;48.520;-1.330;2023-01-16T20:02:37;97608.66;;;5.17;100.00
48796;BME280;34607;48.520;-1.330;2023-01-16T20:05:05;97611.28;;;5.08;99.94
48796;BME280;34607;48.520;-1.330;2023-01-16T20:07:32;97607.06;;;4.99;100.00
48796;BME280;34607;48.520;-1.330;2023-01-16T20:09:59;97607.13;;;4.87;100.00
48796;BME280;34607;48.520;-1.330;2023-01-16T20:12:28;97596.91;;;4.79;100.00
48796;BME280;34607;48.520;-1.330;2023-01-16T20:14:59;97619.91;;;4.93;100.00
48796;BME280;34607;48.520;-1.330;2023-01-16T20:17:30;97609.63;;;4.96;100.00
48796;BME280;34607;48.520;-1.330;2023-01-16T20:19:57;97616.47;;;4.97;100.00
48796;BME280;34607;48.520;-1.330;2023-01-16T20:22:26;97595.16;;;4.89;100.00
48796;BME280;34607;48.520;-1.330;2023-01-16T20:24:53;97595.16;;;4.84;100.00
48796;BME280;34607;48.520;-1.330;2023-01-16T20:27:20;97596.00;;;4.91;100.00
48796;BME280;34607;48.520;-1.330;2023-01-16T20:29:49;97592.56;;;4.92;100.00
48796;BME280;34607;48.520;-1.330;2023-01-16T20:32:16;97599.38;;;4.96;100.00
48796;BME280;34607;48.520;-1.330;2023-01-16T20:34:43;97586.66;;;4.81;100.00
48796;BME280;34607;48.520;-1.330;2023-01-16T20:37:11;97596.88;;;4.87;100.00
48796;BME280;34607;48.520;-1.330;2023-01-16T20:39:38;97592.63;;;4.81;100.00
48796;BME280;34607;48.520;-1.330;2023-01-16T20:42:07;97584.06;;;4.84;100.00
48796;BME280;34607;48.520;-1.330;2023-01-16T20:44:53;97582.34;;;4.83;100.00
48796;BME280;34607;48.520;-1.330;2023-01-16T20:47:37;97578.91;;;4.90;100.00
48796;BME280;34607;48.520;-1.330;2023-01-16T20:50:05;97572.06;;;4.92;100.00
48796;BME280;34607;48.520;-1.330;2023-01-16T20:52:34;97561.81;;;4.89;100.00
48796;BME280;34607;48.520;-1.330;2023-01-16T20:55:01;97566.09;;;4.88;100.00
48796;BME280;34607;48.520;-1.330;2023-01-16T20:57:28;97555.91;;;4.76;100.00
48796;BME280;34607;48.520;-1.330;2023-01-16T20:59:58;97557.69;;;4.68;100.00
48796;BME280;34607;48.520;-1.330;2023-01-16T21:02:25;97549.16;;;4.64;100.00
48796;BME280;34607;48.520;-1.330;2023-01-16T21:04:52;97552.56;;;4.63;100.00
48796;BME280;34607;48.520;-1.330;2023-01-16T21:07:19;97549.09;;;4.69;100.00
48796;BME280;34607;48.520;-1.330;2023-01-16T21:09:46;97549.09;;;4.69;100.00
48796;BME280;34607;48.520;-1.330;2023-01-16T21:12:13;97541.47;;;4.64;100.00
48796;BME280;34607;48.520;-1.330;2023-01-16T21:14:59;97536.44;;;4.43;100.00
48796;BME280;34607;48.520;-1.330;2023-01-16T21:17:26;97528.75;;;4.46;100.00
48796;BME280;34607;48.520;-1.330;2023-01-16T21:20:11;97525.31;;;4.47;100.00
48796;BME280;34607;48.520;-1.330;2023-01-16T21:22:55;97503.97;;;4.45;100.00
48796;BME280;34607;48.520;-1.330;2023-01-16T21:25:22;97511.56;;;4.60;100.00
48796;BME280;34607;48.520;-1.330;2023-01-16T21:27:49;97512.41;;;4.65;100.00
48796;BME280;34607;48.520;-1.330;2023-01-16T21:30:19;97474.97;;;4.37;100.00
48796;BME280;34607;48.520;-1.330;2023-01-16T21:32:46;97509.03;;;4.57;100.00
48796;BME280;34607;48.520;-1.330;2023-01-16T21:35:14;97494.53;;;4.53;100.00
48796;BME280;34607;48.520;-1.330;2023-01-16T21:37:42;97504.72;;;4.64;100.00
48796;BME280;34607;48.520;-1.330;2023-01-16T21:40:11;97491.91;;;4.65;100.00
48796;BME280;34607;48.520;-1.330;2023-01-16T21:42:38;97501.28;;;4.68;100.00
48796;BME280;34607;48.520;-1.330;2023-01-16T21:45:24;97495.44;;;4.49;100.00
48796;BME280;34607;48.520;-1.330;2023-01-16T21:48:11;97495.38;;;4.55;100.00
48796;BME280;34607;48.520;-1.330;2023-01-16T21:50:40;97490.22;;;4.58;100.00
48796;BME280;34607;48.520;-1.330;2023-01-16T21:53:10;97494.50;;;4.59;100.00
48796;BME280;34607;48.520;-1.330;2023-01-16T21:55:37;97491.97;;;4.50;100.00
48796;BME280;34607;48.520;-1.330;2023-01-16T21:58:04;97481.72;;;4.55;100.00
48796;BME280;34607;48.520;-1.330;2023-01-16T22:00:33;97483.47;;;4.45;100.00
48796;BME280;34607;48.520;-1.330;2023-01-16T22:03:02;97453.63;;;4.39;100.00
48796;BME280;34607;48.520;-1.330;2023-01-16T22:05:29;97472.28;;;4.60;100.00
48796;BME280;34607;48.520;-1.330;2023-01-16T22:07:56;97469.72;;;4.64;100.00
48796;BME280;34607;48.520;-1.330;2023-01-16T22:10:23;97469.72;;;4.61;100.00
48796;BME280;34607;48.520;-1.330;2023-01-16T22:12:50;97473.16;;;4.57;100.00